Time;durP1;ratioP1;P1;durP2;ratioP2;P2;SDS_P1;SDS_P2;PMS_P1;PMS_P2;Temp;Humidity;BMP_temperature;BMP_pressure;BME280_temperature;BME280_humidity;BME280_pressure;Samples;Min_cycle;Max_cycle;Signal;HPM_P1;HPM_P2
2022/07/27 00:02:23;;;;;;;7.90;2.23;;;19.00;74.70;;;;;;5054019;28;20463;-52
2022/07/27 00:04:51;;;;;;;5.87;2.23;;;19.20;75.60;;;;;;5053894;28;20455;-52
2022/07/27 00:07:17;;;;;;;5.23;1.77;;;19.50;75.90;;;;;;5053784;28;20453;-51
2022/07/27 00:09:44;;;;;;;4.07;1.77;;;19.00;75.40;;;;;;5053458;28;20535;-52
2022/07/27 00:12:11;;;;;;;5.70;1.80;;;19.00;74.60;;;;;;5053439;28;20491;-52
2022/07/27 00:14:37;;;;;;;4.13;1.57;;;19.20;74.80;;;;;;5053528;28;20445;-52
2022/07/27 00:17:04;;;;;;;4.13;1.70;;;18.80;74.70;;;;;;5053472;28;20485;-51
2022/07/27 00:19:30;;;;;;;4.10;1.70;;;19.20;75.80;;;;;;5053150;28;20437;-52
2022/07/27 00:21:59;;;;;;;7.17;2.10;;;18.90;75.50;;;;;;5053304;28;20893;-51
2022/07/27 00:24:25;;;;;;;6.90;2.03;;;18.90;75.60;;;;;;5053386;28;20924;-52
2022/07/27 00:26:52;;;;;;;8.20;1.23;;;18.90;75.00;;;;;;5052792;28;20465;-52
2022/07/27 00:29:19;;;;;;;5.20;1.70;;;;;;;;;;5051424;28;20449;-51
2022/07/27 00:31:45;;;;;;;7.80;1.70;;;18.80;74.80;;;;;;5053185;28;20479;-52
2022/07/27 00:34:12;;;;;;;7.33;1.80;;;19.00;74.70;;;;;;5053008;28;20437;-51
2022/07/27 00:36:39;;;;;;;5.80;1.43;;;18.50;74.20;;;;;;5052900;28;20464;-51
2022/07/27 00:39:07;;;;;;;5.77;1.57;;;19.20;75.70;;;;;;5052745;28;20437;-51
2022/07/27 00:41:33;;;;;;;4.47;1.50;;;18.90;75.30;;;;;;5052245;28;20434;-51
2022/07/27 00:44:00;;;;;;;7.63;1.50;;;18.30;74.60;;;;;;5052866;28;20434;-52
2022/07/27 00:46:28;;;;;;;7.73;2.60;;;18.50;75.10;;;;;;5051474;28;20460;-51
2022/07/27 00:48:55;;;;;;;5.93;1.70;;;18.20;74.50;;;;;;5052002;28;20432;-52
2022/07/27 00:51:23;;;;;;;6.93;1.40;;;18.30;75.50;;;;;;5052536;28;20478;-52
2022/07/27 00:53:52;;;;;;;5.93;2.23;;;18.20;75.20;;;;;;5052351;28;20436;-51
2022/07/27 00:56:21;;;;;;;6.97;1.50;;;18.10;75.50;;;;;;5052417;28;20475;-51
2022/07/27 00:58:50;;;;;;;4.20;1.50;;;18.00;75.90;;;;;;5051714;28;20453;-50
2022/07/27 01:01:18;;;;;;;5.07;1.27;;;18.00;76.70;;;;;;5052472;28;20445;-51
2022/07/27 01:03:45;;;;;;;6.40;1.70;;;18.10;76.50;;;;;;5052369;28;20528;-51
2022/07/27 01:06:12;;;;;;;7.87;1.57;;;18.10;77.20;;;;;;5052240;28;20440;-51
2022/07/27 01:08:39;;;;;;;4.53;1.50;;;;;;;;;;5051882;28;20501;-51
2022/07/27 01:11:06;;;;;;;9.00;1.53;;;17.60;76.40;;;;;;5052265;28;20843;-52
2022/07/27 01:13:35;;;;;;;3.53;1.80;;;17.80;76.80;;;;;;5052416;28;20462;-52
2022/07/27 01:16:04;;;;;;;7.97;1.80;;;17.70;77.10;;;;;;5052479;28;20435;-51
2022/07/27 01:18:33;;;;;;;6.80;2.00;;;17.70;77.80;;;;;;5052959;28;20466;-51
2022/07/27 01:21:03;;;;;;;6.00;1.80;;;;;;;;;;5053310;28;20442;-52
2022/07/27 01:23:32;;;;;;;6.27;1.77;;;17.60;77.50;;;;;;5052558;28;20428;-51
2022/07/27 01:25:59;;;;;;;5.77;1.70;;;17.70;77.70;;;;;;5052849;28;20444;-51
2022/07/27 01:28:26;;;;;;;5.67;1.60;;;17.40;77.60;;;;;;5052095;28;20459;-51
2022/07/27 01:30:53;;;;;;;4.80;2.00;;;;;;;;;;5052175;28;20931;-52
2022/07/27 01:33:24;;;;;;;4.17;1.60;;;17.50;78.10;;;;;;5052382;28;20497;-52
2022/07/27 01:35:53;;;;;;;3.83;1.50;;;17.40;78.10;;;;;;5052219;28;20999;-51
2022/07/27 01:38:20;;;;;;;3.60;1.30;;;17.50;79.30;;;;;;5052869;28;20455;-51
2022/07/27 01:40:48;;;;;;;7.17;2.17;;;17.80;79.80;;;;;;5051675;28;20436;-52
2022/07/27 01:43:14;;;;;;;8.23;2.13;;;17.10;79.00;;;;;;5051883;28;20812;-51
2022/07/27 01:45:41;;;;;;;3.00;1.20;;;17.40;79.60;;;;;;5051793;28;20443;-51
2022/07/27 01:48:09;;;;;;;5.43;1.67;;;17.40;79.30;;;;;;5050529;28;20967;-51
2022/07/27 01:50:35;;;;;;;8.80;1.60;;;17.70;80.60;;;;;;5051300;28;20926;-52
2022/07/27 01:53:02;;;;;;;6.03;1.80;;;17.00;79.60;;;;;;5051561;28;21015;-51
2022/07/27 01:55:29;;;;;;;2.60;1.27;;;17.50;81.20;;;;;;5051594;28;20434;-52
2022/07/27 01:57:57;;;;;;;10.70;1.60;;;17.20;81.10;;;;;;5051354;28;20962;-52
2022/07/27 02:00:24;;;;;;;6.00;1.30;;;17.00;81.40;;;;;;5051002;28;20955;-52
2022/07/27 02:02:50;;;;;;;5.27;1.40;;;17.10;81.10;;;;;;5051770;28;20915;-52
2022/07/27 02:05:17;;;;;;;5.13;1.83;;;16.90;81.50;;;;;;5051375;28;20427;-52
2022/07/27 02:07:44;;;;;;;5.37;1.47;;;16.90;81.80;;;;;;5051228;28;20459;-52
2022/07/27 02:10:10;;;;;;;5.37;1.53;;;16.60;81.10;;;;;;5050889;28;20431;-51
2022/07/27 02:12:36;;;;;;;6.60;1.63;;;17.10;82.70;;;;;;5050940;28;20474;-51
2022/07/27 02:15:06;;;;;;;8.33;1.73;;;17.10;82.90;;;;;;5051145;28;20437;-51
2022/07/27 02:17:33;;;;;;;6.47;1.50;;;16.80;82.70;;;;;;5051117;28;20270;-51
2022/07/27 02:20:00;;;;;;;5.30;1.57;;;17.10;83.60;;;;;;5050686;28;20438;-51
2022/07/27 02:22:27;;;;;;;5.93;1.67;;;16.80;82.70;;;;;;5051028;28;20431;-51
2022/07/27 02:24:53;;;;;;;9.43;1.30;;;16.70;83.30;;;;;;5051098;28;20424;-51
2022/07/27 02:27:20;;;;;;;6.00;1.40;;;16.60;83.50;;;;;;5050827;28;20537;-51
2022/07/27 02:29:47;;;;;;;6.93;2.30;;;16.40;83.50;;;;;;5050496;28;20518;-51
2022/07/27 02:32:15;;;;;;;3.60;1.37;;;;;;;;;;5050816;28;20531;-51
2022/07/27 02:34:42;;;;;;;6.53;1.87;;;16.60;83.40;;;;;;5049504;28;20458;-51
2022/07/27 02:37:09;;;;;;;4.53;1.50;;;;;;;;;;5051011;28;20945;-51
2022/07/27 02:39:35;;;;;;;5.50;1.70;;;16.70;83.80;;;;;;5050519;28;20465;-51
2022/07/27 02:42:02;;;;;;;11.30;2.17;;;16.60;84.70;;;;;;5050771;28;20527;-50
2022/07/27 02:44:29;;;;;;;4.17;1.90;;;16.30;83.60;;;;;;5050934;28;20974;-52
2022/07/27 02:46:56;;;;;;;5.77;1.43;;;16.40;84.80;;;;;;5050813;28;20823;-51
2022/07/27 02:49:24;;;;;;;5.90;1.30;;;16.50;84.90;;;;;;5050321;28;20434;-52
2022/07/27 02:51:51;;;;;;;4.10;1.43;;;16.50;85.10;;;;;;5050766;28;20481;-51
2022/07/27 02:54:18;;;;;;;7.73;1.60;;;16.60;85.20;;;;;;5050723;28;20484;-52
2022/07/27 02:56:44;;;;;;;7.90;1.90;;;16.10;85.10;;;;;;5050629;28;20918;-51
2022/07/27 02:59:11;;;;;;;7.03;1.53;;;16.80;86.30;;;;;;5050567;28;20447;-52
2022/07/27 03:01:38;;;;;;;4.90;1.47;;;16.40;85.40;;;;;;5050797;28;20801;-52
2022/07/27 03:04:05;;;;;;;4.67;1.50;;;16.50;85.50;;;;;;5051355;28;20434;-51
2022/07/27 03:06:33;;;;;;;7.00;1.90;;;16.20;85.60;;;;;;5054662;28;20439;-52
2022/07/27 03:08:59;;;;;;;4.07;1.73;;;16.20;85.60;;;;;;5054270;28;20430;-52
2022/07/27 03:11:26;;;;;;;6.00;1.80;;;16.50;86.70;;;;;;5054800;28;20812;-51
2022/07/27 03:13:53;;;;;;;8.30;1.70;;;16.10;86.70;;;;;;5054816;28;20435;-52
2022/07/27 03:16:19;;;;;;;4.63;1.47;;;16.10;86.70;;;;;;5054349;28;20441;-51
2022/07/27 03:18:46;;;;;;;6.50;1.57;;;16.50;86.40;;;;;;5054081;28;20513;-52
2022/07/27 03:21:12;;;;;;;6.77;1.60;;;16.20;87.10;;;;;;5054419;28;20529;-51
2022/07/27 03:23:40;;;;;;;5.77;1.70;;;16.40;86.70;;;;;;5054503;28;20431;-51
2022/07/27 03:26:07;;;;;;;6.73;1.97;;;15.90;86.70;;;;;;5054157;28;20442;-51
2022/07/27 03:28:34;;;;;;;5.27;1.60;;;16.40;86.60;;;;;;5093209;22;20551;-47
2022/07/27 03:31:00;;;;;;;7.07;2.60;;;16.40;87.40;;;;;;5075097;28;20445;-47
2022/07/27 03:33:27;;;;;;;4.17;1.40;;;16.30;87.30;;;;;;5074995;28;21021;-47
2022/07/27 03:35:54;;;;;;;2.77;1.30;;;16.60;87.90;;;;;;5074992;28;20440;-47
2022/07/27 03:38:21;;;;;;;3.90;1.70;;;16.80;88.10;;;;;;5074693;28;20464;-46
2022/07/27 03:40:49;;;;;;;7.23;2.07;;;16.60;87.90;;;;;;5074623;28;20437;-47
2022/07/27 03:43:16;;;;;;;7.13;1.97;;;16.10;87.40;;;;;;5075061;28;20425;-47
2022/07/27 03:45:43;;;;;;;9.03;2.20;;;16.40;88.70;;;;;;5074848;28;20435;-48
2022/07/27 03:48:09;;;;;;;5.43;1.50;;;16.60;87.50;;;;;;5073308;28;20556;-47
2022/07/27 03:50:36;;;;;;;6.60;1.40;;;16.80;88.30;;;;;;5074318;28;20442;-48
2022/07/27 03:53:03;;;;;;;5.50;1.93;;;16.40;87.30;;;;;;5074658;28;20487;-47
2022/07/27 03:55:29;;;;;;;4.37;1.60;;;16.30;87.80;;;;;;5074458;28;20430;-47
2022/07/27 03:57:57;;;;;;;7.90;1.47;;;16.90;88.50;;;;;;5074582;28;20461;-48
2022/07/27 04:00:24;;;;;;;7.80;2.00;;;16.50;88.30;;;;;;5074398;28;20434;-46
2022/07/27 04:02:51;;;;;;;6.03;1.70;;;16.80;88.40;;;;;;5074421;28;20453;-47
2022/07/27 04:05:19;;;;;;;6.30;2.10;;;16.50;88.10;;;;;;5074365;28;20526;-47
2022/07/27 04:07:46;;;;;;;6.60;1.80;;;17.10;88.70;;;;;;5074347;28;20839;-47
2022/07/27 04:10:12;;;;;;;7.13;1.57;;;17.10;88.70;;;;;;5074025;28;20425;-47
2022/07/27 04:12:39;;;;;;;7.87;2.30;;;16.50;87.40;;;;;;5074465;28;20827;-47
2022/07/27 04:15:08;;;;;;;7.23;1.93;;;16.30;87.70;;;;;;5074315;28;20434;-46
2022/07/27 04:17:35;;;;;;;4.70;1.63;;;16.60;88.00;;;;;;5074362;28;20457;-47
2022/07/27 04:20:01;;;;;;;9.53;2.10;;;16.80;87.70;;;;;;5074476;28;20436;-47
2022/07/27 04:22:28;;;;;;;8.33;1.90;;;16.80;87.70;;;;;;5074643;28;20443;-46
2022/07/27 04:24:54;;;;;;;5.60;1.63;;;16.60;88.00;;;;;;5074727;28;20522;-47
2022/07/27 04:27:21;;;;;;;12.20;1.60;;;16.70;88.10;;;;;;5074543;28;20842;-48
2022/07/27 04:29:48;;;;;;;6.27;1.53;;;16.80;87.70;;;;;;5073780;28;20508;-48
2022/07/27 04:32:16;;;;;;;5.53;2.80;;;16.70;88.20;;;;;;5074520;28;20473;-45
2022/07/27 04:34:42;;;;;;;3.00;1.53;;;16.40;87.90;;;;;;5075263;28;20430;-47
2022/07/27 04:37:09;;;;;;;4.37;2.03;;;16.40;87.90;;;;;;5074892;28;20813;-47
2022/07/27 04:39:35;;;;;;;8.27;1.63;;;16.50;88.90;;;;;;5074825;28;20426;-47
2022/07/27 04:42:02;;;;;;;5.57;2.00;;;16.30;88.00;;;;;;5075192;28;20430;-47
2022/07/27 04:44:28;;;;;;;5.13;1.93;;;16.50;88.10;;;;;;5075082;28;20449;-47
2022/07/27 04:46:55;;;;;;;5.67;1.90;;;16.70;87.20;;;;;;5074798;28;20453;-46
2022/07/27 04:49:23;;;;;;;9.70;1.93;;;17.10;88.30;;;;;;5074731;28;20430;-46
2022/07/27 04:51:50;;;;;;;12.50;2.27;;;16.50;86.40;;;;;;5074634;28;20460;-47
2022/07/27 04:54:17;;;;;;;5.47;2.40;;;16.90;86.40;;;;;;5074554;28;20432;-47
2022/07/27 04:56:44;;;;;;;6.00;1.47;;;17.20;87.20;;;;;;5074516;28;20441;-47
2022/07/27 04:59:11;;;;;;;8.60;2.07;;;17.00;85.90;;;;;;5073709;28;20857;-47
2022/07/27 05:01:37;;;;;;;5.50;2.10;;;17.00;85.40;;;;;;5073387;28;20462;-47
2022/07/27 05:04:04;;;;;;;6.90;1.80;;;17.30;85.30;;;;;;5073660;28;20453;-47
2022/07/27 05:06:32;;;;;;;4.40;1.43;;;17.50;85.70;;;;;;5073432;28;20465;-47
2022/07/27 05:08:59;;;;;;;4.57;1.83;;;18.00;85.90;;;;;;5073161;28;20443;-46
2022/07/27 05:11:26;;;;;;;6.57;2.20;;;17.70;85.60;;;;;;5073237;28;20448;-46
2022/07/27 05:13:52;;;;;;;3.20;1.40;;;17.80;84.60;;;;;;5073593;28;20485;-46
2022/07/27 05:16:19;;;;;;;7.23;2.10;;;17.60;84.00;;;;;;5073143;28;20437;-47
2022/07/27 05:18:46;;;;;;;9.87;2.00;;;18.10;83.90;;;;;;5073294;28;20459;-46
2022/07/27 05:21:12;;;;;;;7.50;2.27;;;18.20;83.70;;;;;;5071713;28;20459;-46
2022/07/27 05:23:40;;;;;;;7.80;2.70;;;18.50;83.70;;;;;;5073011;28;20432;-48
2022/07/27 05:26:07;;;;;;;7.40;1.70;;;18.40;83.00;;;;;;5073248;28;20436;-47
2022/07/27 05:28:34;;;;;;;5.20;2.07;;;18.50;82.50;;;;;;5071845;28;20474;-47
2022/07/27 05:31:01;;;;;;;6.23;1.60;;;18.50;82.00;;;;;;5072615;28;20429;-46
2022/07/27 05:33:28;;;;;;;6.70;1.73;;;18.00;81.40;;;;;;5072573;28;20478;-49
2022/07/27 05:35:55;;;;;;;5.73;1.80;;;18.40;82.20;;;;;;5072540;28;20439;-46
2022/07/27 05:38:22;;;;;;;6.43;2.33;;;18.30;82.40;;;;;;5072799;28;20513;-46
2022/07/27 05:40:50;;;;;;;5.83;1.37;;;18.30;82.80;;;;;;5072751;28;20442;-47
2022/07/27 05:43:17;;;;;;;5.10;1.90;;;18.00;82.60;;;;;;5072379;28;20893;-46
2022/07/27 05:45:43;;;;;;;4.47;1.50;;;18.20;83.30;;;;;;5072539;28;20442;-46
2022/07/27 05:48:10;;;;;;;5.57;1.83;;;18.00;83.40;;;;;;5072150;28;20558;-47
2022/07/27 05:50:37;;;;;;;9.30;1.80;;;18.20;83.90;;;;;;5071688;28;20440;-47
2022/07/27 05:53:04;;;;;;;6.27;1.73;;;18.70;84.60;;;;;;5072333;28;20479;-47
2022/07/27 05:55:32;;;;;;;5.00;1.70;;;18.10;84.10;;;;;;5072308;28;21024;-47
2022/07/27 05:58:00;;;;;;;6.70;1.97;;;18.20;84.20;;;;;;5072207;28;20472;-47
2022/07/27 06:00:26;;;;;;;9.03;1.90;;;17.90;83.70;;;;;;5071961;28;20432;-47
2022/07/27 06:02:53;;;;;;;5.37;2.03;;;18.50;84.00;;;;;;5071765;28;20431;-47
2022/07/27 06:05:20;;;;;;;6.77;1.90;;;18.80;84.20;;;;;;5072088;28;20439;-47
2022/07/27 06:07:57;;;;;;;10.83;2.23;;;18.10;83.30;;;;;;5071854;28;21003;-47
2022/07/27 06:10:24;;;;;;;7.27;2.07;;;18.70;84.10;;;;;;5071550;28;20953;-47
2022/07/27 06:12:51;;;;;;;9.07;1.67;;;18.60;83.70;;;;;;5072245;28;20487;-45
2022/07/27 06:15:19;;;;;;;5.63;1.87;;;18.60;83.40;;;;;;5072931;28;20447;-46
2022/07/27 06:17:48;;;;;;;4.80;1.63;;;18.80;83.20;;;;;;5071852;28;21038;-47
2022/07/27 06:20:14;;;;;;;6.53;1.97;;;19.30;83.60;;;;;;5071726;28;20440;-47
2022/07/27 06:22:45;;;;;;;6.53;1.60;;;19.20;82.80;;;;;;5072435;28;20471;-47
2022/07/27 06:25:12;;;;;;;4.83;1.80;;;19.30;82.50;;;;;;5071997;28;20433;-47
2022/07/27 06:27:39;;;;;;;10.93;2.73;;;19.40;82.50;;;;;;5071963;28;20476;-48
2022/07/27 06:30:07;;;;;;;7.67;2.50;;;19.20;82.20;;;;;;5071774;28;20527;-48
2022/07/27 06:32:35;;;;;;;6.33;1.83;;;19.00;81.90;;;;;;5071630;28;20439;-47
2022/07/27 06:35:01;;;;;;;10.00;1.83;;;19.10;82.00;;;;;;5072102;28;20463;-46
2022/07/27 06:37:30;;;;;;;8.87;2.40;;;19.10;81.10;;;;;;5071904;28;20457;-46
2022/07/27 06:39:56;;;;;;;6.33;2.10;;;19.40;81.40;;;;;;5071071;28;20955;-47
2022/07/27 06:42:23;;;;;;;5.33;1.90;;;19.40;80.90;;;;;;5072598;28;20439;-46
2022/07/27 06:44:49;;;;;;;4.50;2.43;;;19.40;81.00;;;;;;5072178;28;20475;-47
2022/07/27 06:47:16;;;;;;;7.50;2.33;;;18.70;79.60;;;;;;5071944;28;20457;-47
2022/07/27 06:49:44;;;;;;;12.03;2.10;;;19.10;80.30;;;;;;5071309;28;20757;-46
2022/07/27 06:52:11;;;;;;;6.60;1.90;;;18.90;80.20;;;;;;5070929;28;20451;-46
2022/07/27 06:54:38;;;;;;;7.40;2.00;;;18.80;80.30;;;;;;5071955;28;20472;-47
2022/07/27 06:57:05;;;;;;;7.00;2.37;;;19.00;80.50;;;;;;5071287;28;20560;-46
2022/07/27 06:59:33;;;;;;;11.57;2.27;;;19.30;80.80;;;;;;5071444;28;20472;-47
2022/07/27 07:02:00;;;;;;;5.17;1.67;;;19.10;80.60;;;;;;5070543;28;20522;-47
2022/07/27 07:04:27;;;;;;;6.53;1.87;;;19.00;80.40;;;;;;5071406;28;20485;-47
2022/07/27 07:06:59;;;;;;;8.07;2.07;;;19.20;80.60;;;;;;5071511;28;20440;-48
2022/07/27 07:09:26;;;;;;;4.30;1.63;;;19.20;80.10;;;;;;5071185;28;20431;-48
2022/07/27 07:11:52;;;;;;;10.87;2.20;;;19.20;79.70;;;;;;5072141;28;20812;-48
2022/07/27 07:14:19;;;;;;;6.17;1.80;;;19.20;79.20;;;;;;5071812;28;20506;-46
2022/07/27 07:16:46;;;;;;;4.77;1.70;;;19.70;79.30;;;;;;5071042;28;20432;-48
2022/07/27 07:19:12;;;;;;;5.53;1.90;;;19.60;79.00;;;;;;5071058;28;20468;-46
2022/07/27 07:21:39;;;;;;;6.63;2.20;;;19.60;78.50;;;;;;5071535;28;20949;-47
2022/07/27 07:24:07;;;;;;;5.50;1.80;;;19.90;78.60;;;;;;5071499;28;20448;-47
2022/07/27 07:26:35;;;;;;;9.10;1.80;;;19.90;77.80;;;;;;5071066;28;20805;-47
2022/07/27 07:29:01;;;;;;;5.10;1.60;;;20.00;77.50;;;;;;5071283;28;20479;-48
2022/07/27 07:31:28;;;;;;;7.70;2.70;;;20.00;77.00;;;;;;5070898;28;20440;-46
2022/07/27 07:33:55;;;;;;;4.90;2.07;;;20.40;77.00;;;;;;5071353;28;21011;-46
2022/07/27 07:36:21;;;;;;;9.03;2.00;;;19.90;76.40;;;;;;5070989;28;20949;-47
2022/07/27 07:38:48;;;;;;;5.70;1.50;;;20.20;76.50;;;;;;5069757;28;21087;-46
2022/07/27 07:41:16;;;;;;;5.47;1.97;;;20.40;76.40;;;;;;5071335;28;20437;-46
2022/07/27 07:43:43;;;;;;;6.37;2.10;;;20.60;76.80;;;;;;5071508;28;20430;-47
2022/07/27 07:46:09;;;;;;;11.93;1.80;;;20.50;76.40;;;;;;5071054;28;20441;-47
2022/07/27 07:48:38;;;;;;;6.10;2.00;;;20.30;75.70;;;;;;5070723;28;20465;-46
2022/07/27 07:51:04;;;;;;;3.57;1.70;;;20.10;73.90;;;;;;5072783;28;20434;-47
2022/07/27 07:53:31;;;;;;;3.33;1.30;;;20.70;72.50;;;;;;5074868;28;20484;-46
2022/07/27 07:55:58;;;;;;;3.40;1.20;;;20.80;71.40;;;;;;5074385;28;20426;-46
2022/07/27 07:58:27;;;;;;;10.80;1.40;;;20.60;70.90;;;;;;5073792;28;20453;-47
2022/07/27 08:00:54;;;;;;;9.10;2.10;;;21.10;71.20;;;;;;5074130;28;20439;-46
2022/07/27 08:03:20;;;;;;;5.10;1.80;;;20.80;70.50;;;;;;5074328;28;20790;-47
2022/07/27 08:05:47;;;;;;;3.00;1.27;;;21.00;69.30;;;;;;5073926;28;20456;-48
2022/07/27 08:08:14;;;;;;;3.80;1.50;;;21.10;68.90;;;;;;5074048;28;20513;-47
2022/07/27 08:10:40;;;;;;;3.20;1.40;;;20.80;68.10;;;;;;5074362;28;20428;-47
2022/07/27 08:13:07;;;;;;;7.00;4.00;;;21.30;68.20;;;;;;5074428;28;20434;-47
2022/07/27 08:15:35;;;;;;;9.60;2.70;;;21.20;67.60;;;;;;5074597;28;20450;-46
2022/07/27 08:18:02;;;;;;;4.70;1.87;;;21.00;66.70;;;;;;5074160;28;20459;-47
2022/07/27 08:20:29;;;;;;;6.00;1.60;;;21.00;66.80;;;;;;5073074;28;20806;-46
2022/07/27 08:22:55;;;;;;;3.03;1.33;;;21.10;67.10;;;;;;5072527;28;20766;-48
2022/07/27 08:25:22;;;;;;;3.40;1.07;;;21.00;67.10;;;;;;5073933;28;20884;-46
2022/07/27 08:27:49;;;;;;;7.57;1.97;;;21.60;66.80;;;;;;5073592;28;20459;-47
2022/07/27 08:30:16;;;;;;;3.43;1.33;;;20.80;65.80;;;;;;5073623;28;20912;-48
2022/07/27 08:32:49;;;;;;;5.17;1.30;;;21.00;65.70;;;;;;5073550;28;20935;-46
2022/07/27 08:35:17;;;;;;;2.70;1.20;;;21.00;64.40;;;;;;5073636;28;20485;-48
2022/07/27 08:37:43;;;;;;;3.17;1.10;;;20.90;64.40;;;;;;5072124;28;20470;-48
2022/07/27 08:40:11;;;;;;;4.43;1.23;;;21.20;65.10;;;;;;5073236;28;20439;-47
2022/07/27 08:42:41;;;;;;;4.30;1.50;;;20.70;64.40;;;;;;5073020;28;20531;-47
2022/07/27 08:45:10;;;;;;;4.40;1.00;;;20.60;65.00;;;;;;5073991;28;20499;-47
2022/07/27 08:47:38;;;;;;;5.40;1.57;;;20.70;65.90;;;;;;5073010;28;20454;-46
2022/07/27 08:50:21;;;;;;;3.97;1.50;;;20.60;65.70;;;;;;5073382;28;20435;-46
2022/07/27 08:52:56;;;;;;;4.27;0.93;;;20.80;64.00;;;;;;5073804;28;20463;-47
2022/07/27 08:55:24;;;;;;;2.30;1.20;;;20.90;63.80;;;;;;5073850;28;20483;-47
2022/07/27 08:57:51;;;;;;;5.63;1.40;;;20.90;64.60;;;;;;5073123;28;21005;-47
2022/07/27 09:00:18;;;;;;;2.90;1.17;;;21.00;65.40;;;;;;5072839;28;20445;-46
2022/07/27 09:02:45;;;;;;;4.80;1.80;;;21.10;65.60;;;;;;5072332;28;20435;-47
2022/07/27 09:05:13;;;;;;;4.40;1.60;;;21.00;65.60;;;;;;5073044;28;20456;-50
2022/07/27 09:19:05;;;;;;;4.70;1.50;;;21.60;65.20;;;;;;5072745;28;20497;-46
2022/07/27 09:21:37;;;;;;;7.90;1.73;;;21.50;64.60;;;;;;5072393;28;20820;-47
2022/07/27 09:24:09;;;;;;;6.50;1.90;;;21.50;63.90;;;;;;5072710;28;20427;-48
2022/07/27 09:26:37;;;;;;;5.43;1.37;;;21.70;63.90;;;;;;5072622;28;20433;-48
2022/07/27 09:29:06;;;;;;;5.70;1.60;;;21.60;63.30;;;;;;5094872;22;20503;-48
2022/07/27 09:31:41;;;;;;;7.77;2.00;;;21.90;63.70;;;;;;5071415;28;20431;-48
2022/07/27 09:34:07;;;;;;;6.30;1.97;;;22.00;63.10;;;;;;5071833;28;20513;-48
2022/07/27 09:36:48;;;;;;;5.20;1.57;;;22.10;63.80;;;;;;5071540;28;20426;-48
2022/07/27 09:39:19;;;;;;;5.80;1.83;;;22.30;64.00;;;;;;5071744;28;20915;-48
2022/07/27 09:41:47;;;;;;;8.77;1.90;;;21.90;63.60;;;;;;5071862;28;20441;-48
2022/07/27 09:44:15;;;;;;;6.57;2.30;;;22.10;63.90;;;;;;5071853;28;20929;-48
2022/07/27 09:46:43;;;;;;;5.87;1.73;;;21.80;63.30;;;;;;5071818;28;20430;-48
2022/07/27 09:49:27;;;;;;;4.63;1.60;;;22.00;63.00;;;;;;5070999;28;20461;-48
2022/07/27 09:51:54;;;;;;;13.40;4.43;;;21.50;61.00;;;;;;5071575;28;20441;-48
2022/07/27 09:54:48;;;;;;;7.37;1.57;;;22.00;61.60;;;;;;5071660;28;20472;-48
2022/07/27 09:57:24;;;;;;;5.03;2.37;;;22.40;60.30;;;;;;5071411;28;20465;-48
2022/07/27 10:00:08;;;;;;;3.63;1.80;;;22.20;60.70;;;;;;5071148;28;20441;-48
2022/07/27 10:02:36;;;;;;;16.07;2.00;;;22.40;60.80;;;;;;5071237;28;20856;-48
2022/07/27 10:05:18;;;;;;;4.80;1.83;;;;;;;;;;5072382;28;20812;-48
2022/07/27 10:07:45;;;;;;;4.33;1.53;;;22.50;59.00;;;;;;5071357;28;20463;-47
2022/07/27 10:10:14;;;;;;;6.80;1.67;;;22.10;59.70;;;;;;5071049;28;20459;-48
2022/07/27 10:12:41;;;;;;;7.60;1.93;;;22.60;59.30;;;;;;5071682;28;20439;-49
2022/07/27 10:15:09;;;;;;;3.47;1.30;;;22.40;59.40;;;;;;5070707;28;20916;-48
2022/07/27 10:18:00;;;;;;;7.50;2.00;;;22.60;58.80;;;;;;5071149;28;20545;-49
2022/07/27 10:20:27;;;;;;;6.70;1.63;;;;;;;;;;5071084;28;20512;-48
2022/07/27 10:22:57;;;;;;;12.97;3.60;;;22.70;58.30;;;;;;5071141;28;20495;-49
2022/07/27 10:25:27;;;;;;;6.80;2.17;;;22.60;58.40;;;;;;5071589;28;20435;-49
2022/07/27 10:28:09;;;;;;;16.27;2.30;;;22.80;58.40;;;;;;5070958;28;20469;-49
2022/07/27 10:30:36;;;;;;;5.60;2.30;;;22.80;58.40;;;;;;5070759;28;20476;-50
2022/07/27 10:33:13;;;;;;;6.77;2.47;;;22.90;58.60;;;;;;5071085;28;20434;-48
2022/07/27 10:35:50;;;;;;;7.50;3.10;;;22.90;58.50;;;;;;5071155;28;20487;-48
2022/07/27 10:38:17;;;;;;;4.67;2.30;;;22.80;58.50;;;;;;5071452;28;20458;-49
2022/07/27 10:40:46;;;;;;;5.90;1.30;;;22.80;58.30;;;;;;5070875;28;20956;-49
2022/07/27 10:43:18;;;;;;;5.00;2.40;;;22.80;59.00;;;;;;5071277;28;20483;-48
2022/07/27 10:45:47;;;;;;;6.80;2.13;;;22.90;58.90;;;;;;5071264;28;20450;-48
2022/07/27 10:48:36;;;;;;;7.60;2.03;;;23.00;58.80;;;;;;5071539;28;20974;-48
2022/07/27 10:51:03;;;;;;;23.13;2.93;;;23.10;58.60;;;;;;5071296;28;20460;-50
2022/07/27 10:53:34;;;;;;;9.00;1.47;;;23.10;58.70;;;;;;5070989;28;20510;-50
2022/07/27 10:56:02;;;;;;;12.00;2.30;;;23.20;58.50;;;;;;5071272;28;20473;-49
2022/07/27 10:58:46;;;;;;;10.83;2.10;;;22.90;58.90;;;;;;5070617;28;20453;-49
2022/07/27 11:01:17;;;;;;;27.87;5.23;;;23.30;58.50;;;;;;5070781;28;20449;-49
2022/07/27 11:03:51;;;;;;;14.27;2.50;;;23.30;58.40;;;;;;5070794;28;20438;-49
2022/07/27 11:06:31;;;;;;;6.97;2.33;;;23.40;58.40;;;;;;5070956;28;20849;-49
2022/07/27 11:09:00;;;;;;;11.00;2.10;;;23.30;58.10;;;;;;5070158;28;21002;-49
2022/07/27 11:11:33;;;;;;;8.23;1.80;;;23.30;58.90;;;;;;5070653;28;20519;-49
2022/07/27 11:14:00;;;;;;;5.10;1.37;;;23.20;58.30;;;;;;5070870;28;20935;-49
2022/07/27 11:16:29;;;;;;;6.23;1.67;;;23.10;58.20;;;;;;5071200;28;20426;-49
2022/07/27 11:19:00;;;;;;;7.53;1.90;;;23.20;58.30;;;;;;5070163;28;20475;-49
2022/07/27 11:21:28;;;;;;;4.70;1.90;;;23.20;58.30;;;;;;5071041;28;20429;-48
2022/07/27 11:23:57;;;;;;;6.30;2.10;;;23.30;58.90;;;;;;5071525;28;20901;-48
2022/07/27 11:26:26;;;;;;;20.77;2.83;;;23.20;58.30;;;;;;5073623;28;20447;-48
2022/07/27 11:28:54;;;;;;;4.60;1.40;;;23.20;58.30;;;;;;5073851;28;20474;-49
2022/07/27 11:31:22;;;;;;;7.93;2.10;;;23.30;58.00;;;;;;5074226;28;20445;-48
2022/07/27 11:33:57;;;;;;;7.80;1.67;;;23.20;58.40;;;;;;5074498;28;20433;-48
2022/07/27 11:36:36;;;;;;;3.17;1.50;;;23.40;57.60;;;;;;5074466;28;20479;-48
2022/07/27 11:39:05;;;;;;;4.67;1.90;;;23.40;57.00;;;;;;5073847;28;20463;-47
2022/07/27 11:41:33;;;;;;;2.87;1.17;;;;;;;;;;5073921;28;20432;-48
2022/07/27 11:44:02;;;;;;;7.63;1.70;;;23.60;57.30;;;;;;5074207;28;20821;-49
2022/07/27 11:46:30;;;;;;;9.37;1.63;;;23.40;57.10;;;;;;5073578;28;20439;-48
2022/07/27 11:48:59;;;;;;;13.57;2.77;;;23.20;57.60;;;;;;5073878;28;20557;-49
2022/07/27 11:51:26;;;;;;;6.77;1.77;;;23.40;57.60;;;;;;5073752;28;20431;-48
2022/07/27 11:53:57;;;;;;;7.60;1.70;;;;;;;;;;5073818;28;20508;-48
2022/07/27 11:56:25;;;;;;;8.00;1.87;;;23.50;57.50;;;;;;5073682;28;20483;-48
2022/07/27 11:59:04;;;;;;;13.00;2.47;;;23.60;57.50;;;;;;5073490;28;20447;-48
2022/07/27 12:01:33;;;;;;;6.63;1.77;;;23.60;57.50;;;;;;5074109;28;20962;-48
2022/07/27 12:04:12;;;;;;;5.03;1.70;;;23.60;57.10;;;;;;5073973;28;20493;-48
2022/07/27 12:06:40;;;;;;;7.27;1.67;;;23.70;56.90;;;;;;5074249;28;20841;-48
2022/07/27 12:09:09;;;;;;;4.50;1.40;;;23.60;56.00;;;;;;5073456;28;20447;-49
2022/07/27 12:11:57;;;;;;;48.80;3.60;;;23.60;55.70;;;;;;5073776;28;20451;-49
2022/07/27 12:14:34;;;;;;;8.30;1.90;;;23.60;55.90;;;;;;5073263;28;20424;-49
2022/07/27 12:17:25;;;;;;;4.07;1.80;;;23.70;56.10;;;;;;5073490;28;20439;-49
2022/07/27 12:19:54;;;;;;;6.47;1.80;;;23.70;56.40;;;;;;5073110;28;20436;-49
2022/07/27 12:22:26;;;;;;;22.83;4.87;;;23.70;55.70;;;;;;5055322;28;20455;-49
2022/07/27 12:24:54;;;;;;;3.40;1.33;;;23.70;55.20;;;;;;5073157;28;20442;-49
2022/07/27 12:27:21;;;;;;;17.80;4.57;;;23.50;55.70;;;;;;5073151;28;20457;-49
2022/07/27 12:30:05;;;;;;;8.43;1.53;;;23.90;54.60;;;;;;5072953;28;20521;-49
2022/07/27 12:32:33;;;;;;;13.17;2.23;;;23.90;54.40;;;;;;5073517;28;20559;-49
2022/07/27 12:35:01;;;;;;;3.73;1.40;;;;;;;;;;5073413;28;20482;-49
2022/07/27 12:37:31;;;;;;;5.20;1.27;;;23.90;54.70;;;;;;5053927;28;20454;-49
2022/07/27 12:39:59;;;;;;;3.60;1.30;;;23.80;54.70;;;;;;5072391;28;20443;-49
2022/07/27 12:42:35;;;;;;;2.97;1.23;;;23.50;55.40;;;;;;5072935;28;20434;-49
2022/07/27 12:45:16;;;;;;;10.70;3.10;;;23.40;55.40;;;;;;5072906;28;20437;-50
2022/07/27 12:47:43;;;;;;;5.77;2.00;;;23.60;55.10;;;;;;5072912;28;20952;-49
2022/07/27 12:50:12;;;;;;;4.83;1.80;;;23.40;55.60;;;;;;5072843;28;20970;-49
2022/07/27 12:52:43;;;;;;;7.37;1.73;;;23.90;55.30;;;;;;5072941;28;20435;-48
2022/07/27 12:55:11;;;;;;;3.37;1.33;;;23.90;55.50;;;;;;5072512;28;20562;-50
2022/07/27 12:57:38;;;;;;;6.90;1.50;;;;;;;;;;5072641;28;20486;-49
2022/07/27 13:00:06;;;;;;;3.67;1.83;;;24.00;54.20;;;;;;5072663;28;20522;-48
2022/07/27 13:02:34;;;;;;;4.60;1.83;;;24.00;54.40;;;;;;5054756;28;20543;-49
2022/07/27 13:05:01;;;;;;;4.33;1.57;;;24.00;53.80;;;;;;5072835;28;20427;-49
2022/07/27 13:07:28;;;;;;;7.57;2.53;;;23.90;53.40;;;;;;5072821;28;20546;-49
2022/07/27 13:09:54;;;;;;;29.50;3.60;;;23.90;53.70;;;;;;5054110;28;20926;-48